Brookfield, Connecticut
Current Conditions -  °F | °C
As of 10:53 AM on Saturday 25 Oct 2014 (Local Time) from KDXR Reporting Station
Clear Clear  
Wind Chill: 56°   Ceiling: Unl
Heat Index: 56°   Visibility: 10mi
Dew Point: 38°   Wind: 3mph
Humidity: 51%   Direction: 270°W
Pressure: 29.82"   Gusts: NA
Location:  41.48°N, 73.41°W
Report Text: KDXR 251453Z 27003KT 10SM CLR 13/03 A2982 RMK AO2 SLP098 T01330033 58013
Loading
Personal Weather Stations






























Interactive Weather Map New forecast layout! Learn more

10-Day Weather Forecast

Advertisements
Track Severe Weather on mobile